Time;durP1;ratioP1;P1;durP2;ratioP2;P2;SDS_P1;SDS_P2;PMS_P1;PMS_P2;Temp;Humidity;BMP_temperature;BMP_pressure;BME280_temperature;BME280_humidity;BME280_pressure;Samples;Min_cycle;Max_cycle;Signal;HPM_P1;HPM_P2
2023/07/30 00:01:50;;;;;;;11.27;9.30;;;;;;;-144.30;45.46;84009.13;5127996;28;20208;-49
2023/07/30 00:04:30;;;;;;;12.55;8.80;;;;;;;-144.30;45.51;84031.00;5128843;28;20288;-50
2023/07/30 00:07:10;;;;;;;10.48;9.00;;;;;;;-144.30;45.25;84007.16;5128868;28;20221;-53
2023/07/30 00:09:52;;;;;;;10.50;8.70;;;;;;;-144.30;45.30;83987.28;5128582;28;20194;-50
2023/07/30 00:15:29;;;;;;;10.60;7.68;;;;;;;-144.30;45.51;84007.16;5127882;27;20221;-54
2023/07/30 00:18:15;;;;;;;8.95;8.05;;;;;;;-144.30;45.34;83991.25;5132169;27;20213;-50
2023/07/30 00:21:06;;;;;;;12.73;8.25;;;;;;;-144.30;45.34;84009.13;5129176;27;20204;-54
2023/07/30 00:23:52;;;;;;;8.88;7.90;;;;;;;-144.30;45.27;84005.16;5131717;27;20201;-54
2023/07/30 00:26:42;;;;;;;10.13;7.93;;;;;;;-144.30;45.61;83977.34;5129671;27;20284;-53
2023/07/30 00:29:26;;;;;;;8.23;7.43;;;;;;;-144.30;45.38;84001.19;5129382;27;20205;-54
2023/07/30 00:32:24;;;;;;;10.05;7.57;;;;;;;-144.30;45.53;83991.25;5131648;27;20190;-51
2023/07/30 00:35:05;;;;;;;8.52;6.60;;;;;;;-144.30;45.42;83985.28;5131561;27;20699;-53
2023/07/30 00:37:53;;;;;;;6.82;6.18;;;;;;;-144.30;45.16;83969.38;5131544;27;20564;-50
2023/07/30 00:40:37;;;;;;;6.60;6.00;;;;;;;-144.30;44.79;84032.97;5127696;27;20217;-55
2023/07/30 00:43:24;;;;;;;6.40;5.90;;;;;;;-144.30;44.82;83993.22;5130291;27;20226;-49
2023/07/30 00:46:03;;;;;;;5.88;5.45;;;;;;;-144.30;44.96;84011.13;5131378;27;20193;-53
2023/07/30 00:48:55;;;;;;;6.45;5.90;;;;;;;-144.30;45.29;84027.00;5131094;27;20225;-54
2023/07/30 00:51:47;;;;;;;6.38;5.65;;;;;;;-144.30;45.30;84060.78;5130098;27;20198;-50
2023/07/30 00:54:33;;;;;;;6.38;5.78;;;;;;;-144.30;45.54;84001.19;5130521;27;20209;-52
2023/07/30 00:57:19;;;;;;;8.32;6.28;;;;;;;-144.30;45.72;84015.09;5128629;27;20194;-53
2023/07/30 01:00:04;;;;;;;6.03;5.57;;;;;;;-144.30;45.85;84023.03;5130564;27;20580;-53
2023/07/30 01:02:52;;;;;;;6.60;6.00;;;;;;;-144.30;45.88;83901.81;5130515;27;20676;-53
2023/07/30 01:05:36;;;;;;;7.00;5.60;;;;;;;-144.30;46.16;84040.91;5129072;27;20282;-50
2023/07/30 01:08:18;;;;;;;7.07;6.45;;;;;;;-144.30;46.19;84036.94;5129726;27;20213;-50
2023/07/30 01:11:01;;;;;;;6.55;5.95;;;;;;;-144.30;46.20;84046.88;5130111;27;20209;-53
2023/07/30 01:13:43;;;;;;;7.47;6.28;;;;;;;-144.30;46.26;84060.78;5130198;27;20680;-54
2023/07/30 01:16:30;;;;;;;7.03;6.15;;;;;;;-144.30;46.31;84029.00;5130134;27;20233;-50
2023/07/30 01:19:13;;;;;;;7.80;6.70;;;;;;;-144.30;46.07;84048.88;5130511;27;20235;-50
2023/07/30 01:22:03;;;;;;;6.80;6.28;;;;;;;-144.30;45.67;84046.88;5128898;27;20236;-54
2023/07/30 01:24:46;;;;;;;6.80;6.30;;;;;;;-144.30;45.49;84056.81;5130200;27;20194;-52
2023/07/30 01:27:36;;;;;;;7.22;6.53;;;;;;;-144.30;46.09;84013.09;5130063;27;20282;-54
2023/07/30 01:30:31;;;;;;;6.82;6.22;;;;;;;-144.30;46.30;84080.66;5131434;27;20186;-51
2023/07/30 01:33:22;;;;;;;10.27;6.25;;;;;;;-144.30;46.52;84072.72;5131038;27;20189;-49
2023/07/30 01:36:02;;;;;;;6.50;5.85;;;;;;;-144.30;46.72;84054.84;5127868;27;20194;-50
2023/07/30 01:38:55;;;;;;;6.95;6.15;;;;;;;-144.30;46.93;84056.81;5129845;27;20186;-50
2023/07/30 01:41:37;;;;;;;7.93;6.22;;;;;;;-144.30;46.44;84052.84;5129085;27;20610;-51
2023/07/30 01:44:16;;;;;;;7.30;6.30;;;;;;;-144.30;47.03;84062.78;5128259;27;20732;-49
2023/07/30 01:47:01;;;;;;;6.65;5.97;;;;;;;-144.30;47.33;84076.69;5128876;27;20277;-51
2023/07/30 01:49:37;;;;;;;9.98;6.72;;;;;;;-144.30;48.10;84086.63;5128693;27;20214;-54
2023/07/30 01:52:22;;;;;;;14.25;6.35;;;;;;;-144.30;48.90;84112.47;5129009;27;20189;-54
2023/07/30 01:55:15;;;;;;;11.45;6.32;;;;;;;-144.30;49.79;84158.16;5129495;27;20186;-49
2023/07/30 01:58:05;;;;;;;6.68;6.18;;;;;;;-144.30;50.66;84178.03;5126543;27;20201;-50
2023/07/30 02:00:53;;;;;;;8.40;6.20;;;;;;;-144.30;51.38;84207.84;5129660;27;20681;-53
2023/07/30 02:03:42;;;;;;;9.68;5.97;;;;;;;-144.30;51.39;84176.06;5128236;27;20222;-51
2023/07/30 02:06:33;;;;;;;6.68;5.65;;;;;;;-144.30;51.28;84128.34;5124819;27;20277;-53
2023/07/30 02:09:21;;;;;;;6.15;5.60;;;;;;;-144.30;51.05;84144.25;5127203;27;20774;-53
2023/07/30 02:12:11;;;;;;;5.57;5.20;;;;;;;-144.30;51.59;84209.84;5128815;27;20190;-54
2023/07/30 02:14:58;;;;;;;5.53;5.07;;;;;;;-144.30;52.08;84211.81;5125851;27;20198;-51
2023/07/30 02:17:42;;;;;;;9.50;5.07;;;;;;;-144.30;53.02;84273.44;5130102;27;20669;-50
2023/07/30 02:20:27;;;;;;;7.88;4.80;;;;;;;-144.30;53.46;84303.25;5128016;27;20217;-51
2023/07/30 02:23:16;;;;;;;4.75;4.45;;;;;;;-144.30;53.31;84277.41;5130026;27;20212;-51
2023/07/30 02:26:02;;;;;;;8.25;5.57;;;;;;;-144.30;53.38;84303.25;5124868;27;20607;-50
2023/07/30 02:28:43;;;;;;;5.68;5.28;;;;;;;-144.30;53.39;84279.38;5128610;27;20210;-50
2023/07/30 02:31:33;;;;;;;6.18;5.38;;;;;;;-144.30;53.19;84251.56;5127300;27;20190;-51
2023/07/30 02:34:33;;;;;;;7.10;5.70;;;;;;;-144.30;53.10;84261.50;5127426;27;20658;-51
2023/07/30 02:37:21;;;;;;;5.72;5.22;;;;;;;-144.30;52.94;84263.50;5127158;27;20209;-53
2023/07/30 02:40:12;;;;;;;8.73;5.55;;;;;;;-144.30;52.68;84239.66;5127720;27;20468;-49
2023/07/30 02:43:00;;;;;;;6.00;5.00;;;;;;;-144.30;52.87;84243.63;5129693;27;20295;-53
2023/07/30 02:45:48;;;;;;;13.93;5.78;;;;;;;-144.30;52.75;84259.50;5126629;27;20197;-51
2023/07/30 02:48:33;;;;;;;7.00;5.50;;;;;;;-144.30;52.84;84269.47;5128437;27;20301;-53
2023/07/30 02:51:20;;;;;;;8.23;5.90;;;;;;;-144.30;53.07;84287.34;5127028;27;20250;-51
2023/07/30 02:54:11;;;;;;;5.80;5.25;;;;;;;-144.30;53.00;84295.28;5127969;27;20285;-50
2023/07/30 02:56:52;;;;;;;6.38;5.57;;;;;;;-144.30;53.24;84273.44;5128584;27;20197;-51
2023/07/30 02:59:40;;;;;;;5.78;4.68;;;;;;;-144.30;53.15;84313.19;5129683;27;20588;-53
2023/07/30 03:02:15;;;;;;;5.75;4.88;;;;;;;-144.30;53.10;84307.22;5127970;27;20190;-54
2023/07/30 03:04:46;;;;;;;5.60;5.20;;;;;;;-144.30;53.16;84307.22;5126906;27;20204;-54
2023/07/30 03:07:22;;;;;;;5.82;5.32;;;;;;;-144.30;53.37;84199.91;5129331;27;20245;-50
2023/07/30 03:09:53;;;;;;;5.68;5.25;;;;;;;-144.30;54.05;84291.31;5129026;27;20210;-51
2023/07/30 03:12:24;;;;;;;6.90;5.65;;;;;;;-144.30;54.66;84319.13;5128744;27;20194;-49
2023/07/30 03:14:56;;;;;;;9.45;5.43;;;;;;;-144.30;54.34;84392.66;5127615;27;20205;-54
2023/07/30 03:17:40;;;;;;;5.95;5.20;;;;;;;-144.30;54.30;84315.16;5128407;27;20189;-49
2023/07/30 03:20:26;;;;;;;5.65;5.15;;;;;;;-144.30;54.35;84327.09;5126700;27;20221;-48
2023/07/30 03:22:58;;;;;;;7.43;5.22;;;;;;;-144.30;54.45;84358.88;5126247;27;20202;-48
2023/07/30 03:25:51;;;;;;;10.52;5.00;;;;;;;-144.30;54.08;84362.84;5130382;27;20194;-50
2023/07/30 03:28:29;;;;;;;7.70;5.10;;;;;;;-144.30;54.13;84323.13;5129530;28;20229;-54
2023/07/30 03:31:11;;;;;;;8.90;5.50;;;;;;;-144.30;54.46;84323.13;5128013;28;20194;-54
2023/07/30 03:34:03;;;;;;;7.03;5.20;;;;;;;-144.30;54.60;84354.91;5127153;28;20197;-55
2023/07/30 03:39:50;;;;;;;7.65;6.03;;;;;;;-144.30;55.96;84380.75;5130135;28;20658;-49
2023/07/30 03:42:26;;;;;;;15.95;6.15;;;;;;;-144.30;55.73;84319.13;5116833;28;20205;-53
2023/07/30 03:45:21;;;;;;;10.48;5.00;;;;;;;-144.30;55.24;84283.38;5129161;28;20197;-48
2023/07/30 03:48:20;;;;;;;6.85;6.05;;;;;;;-144.30;54.87;84305.22;5130208;28;20202;-51
2023/07/30 03:51:14;;;;;;;;;;;;;;;;;;;;;
2023/07/30 03:54:14;;;;;;;;;;;;;;;;;;;;;
2023/07/30 03:57:17;;;;;;;9.68;5.38;;;;;;;-144.30;54.83;84305.22;5123844;27;20213;-54
2023/07/30 04:00:05;;;;;;;5.55;5.05;;;;;;;-144.30;52.75;84162.16;5133790;27;20229;-55
2023/07/30 04:02:58;;;;;;;7.03;4.82;;;;;;;-144.30;48.48;83868.03;5133439;27;20208;-53
2023/07/30 04:05:44;;;;;;;7.68;4.75;;;;;;;-144.30;44.76;83663.38;5133521;27;20681;-55
2023/07/30 04:08:34;;;;;;;4.60;4.20;;;;;;;-144.30;41.98;83420.97;5133451;27;20222;-54
2023/07/30 04:11:26;;;;;;;5.10;4.60;;;;;;;-144.30;39.30;83164.69;5132989;27;20189;-50
2023/07/30 04:14:07;;;;;;;6.38;4.63;;;;;;;-144.30;37.37;82940.22;5130495;27;20220;-54
2023/07/30 04:16:36;;;;;;;4.95;4.32;;;;;;;-144.30;35.73;82765.41;5133210;27;20219;-53
2023/07/30 04:19:19;;;;;;;6.22;3.97;;;;;;;-144.30;34.29;82608.47;5122979;27;20658;-49
2023/07/30 04:22:08;;;;;;;4.38;3.83;;;;;;;-144.30;32.95;82352.25;5121038;27;20202;-53
2023/07/30 04:25:10;;;;;;;4.45;4.10;;;;;;;-144.30;31.69;82068.25;5132742;27;20194;-50
2023/07/30 04:28:07;;;;;;;5.75;4.30;;;;;;;-144.30;30.45;81821.97;5132765;27;20197;-51
2023/07/30 04:33:50;;;;;;;6.00;3.67;;;;;;;-144.30;29.42;81579.72;5132539;27;20583;-53
2023/07/30 04:36:43;;;;;;;4.97;4.03;;;;;;;-144.30;28.86;81470.50;5132957;27;20697;-51
2023/07/30 04:39:16;;;;;;;4.25;3.63;;;;;;;-144.30;28.37;81341.44;5127822;27;20193;-50
2023/07/30 04:42:18;;;;;;;6.30;3.72;;;;;;;-144.30;28.20;81252.09;5132688;27;20205;-51
2023/07/30 04:45:05;;;;;;;5.20;3.80;;;;;;;-144.30;27.46;80993.97;5132288;27;20201;-50
2023/07/30 04:47:51;;;;;;;6.03;4.03;;;;;;;-144.30;27.40;80823.22;5133002;27;20201;-51
2023/07/30 04:50:25;;;;;;;6.03;4.40;;;;;;;-144.30;26.95;80801.41;5131710;27;20228;-54
2023/07/30 04:53:16;;;;;;;5.20;4.35;;;;;;;-144.30;27.11;80731.91;5130092;27;20204;-51
2023/07/30 04:55:44;;;;;;;4.88;4.05;;;;;;;-144.30;26.73;80604.84;5132109;27;20588;-54
2023/07/30 04:58:22;;;;;;;4.25;3.95;;;;;;;-144.30;26.65;80588.97;5132752;27;20635;-54
2023/07/30 05:04:13;;;;;;;4.68;4.22;;;;;;;-144.30;26.42;80567.13;5130758;27;20205;-53
2023/07/30 05:07:01;;;;;;;6.93;4.15;;;;;;;-144.30;26.37;80583.00;5129498;27;20201;-49
2023/07/30 05:09:54;;;;;;;5.05;3.83;;;;;;;-144.30;26.93;80884.78;5117413;27;20217;-54
2023/07/30 05:12:22;;;;;;;8.32;4.68;;;;;;;-144.30;26.50;80803.38;5129186;27;20680;-52
2023/07/30 05:15:12;;;;;;;6.15;4.30;;;;;;;-144.30;26.45;80789.47;5132304;27;20195;-55
2023/07/30 05:17:59;;;;;;;6.05;4.25;;;;;;;-144.30;26.38;80843.09;5131464;27;20231;-54
2023/07/30 05:20:48;;;;;;;5.78;4.20;;;;;;;-144.30;26.75;80942.34;5130282;27;20308;-55
2023/07/30 05:23:45;;;;;;;4.50;4.20;;;;;;;-144.30;26.70;80831.16;5131470;27;20233;-50
2023/07/30 05:26:29;;;;;;;4.00;3.70;;;;;;;-144.30;26.28;80765.66;5130725;27;20193;-54
2023/07/30 05:29:20;;;;;;;4.53;4.22;;;;;;;-144.30;26.38;80763.66;5129974;27;20260;-54
2023/07/30 05:32:12;;;;;;;5.35;4.10;;;;;;;-144.30;25.95;80753.75;5131892;27;20193;-54
2023/07/30 05:35:05;;;;;;;5.25;4.07;;;;;;;-144.30;25.87;80676.31;5130351;27;20206;-54
2023/07/30 05:37:45;;;;;;;4.35;3.97;;;;;;;-144.30;25.28;80400.38;5131227;27;20189;-51
2023/07/30 05:40:31;;;;;;;4.22;3.92;;;;;;;-144.30;25.84;80592.94;5131773;27;20189;-51
2023/07/30 05:43:29;;;;;;;3.83;3.55;;;;;;;-144.30;25.32;80525.44;5131836;27;20189;-51
2023/07/30 05:46:25;;;;;;;4.88;4.00;;;;;;;-144.30;25.85;80741.84;5131287;27;20201;-51
2023/07/30 05:49:22;;;;;;;4.55;3.28;;;;;;;-144.30;25.98;80666.41;5131758;27;20600;-52
2023/07/30 05:51:52;;;;;;;5.25;3.72;;;;;;;-144.30;25.60;80682.28;5130921;27;20576;-54
2023/07/30 05:54:42;;;;;;;4.07;3.83;;;;;;;-144.30;25.78;80986.03;5132246;27;20228;-51
2023/07/30 05:57:26;;;;;;;5.15;3.90;;;;;;;-144.30;25.75;80523.47;5128962;27;20537;-54
2023/07/30 06:00:07;;;;;;;6.55;3.80;;;;;;;-144.30;25.28;80487.72;5129243;27;20185;-54
2023/07/30 06:02:39;;;;;;;3.42;3.28;;;;;;;-144.30;25.10;80408.31;5132164;27;20237;-51
2023/07/30 06:05:20;;;;;;;3.92;3.67;;;;;;;-144.30;24.80;80164.16;5132276;27;20194;-50
2023/07/30 06:07:57;;;;;;;10.98;4.30;;;;;;;-144.30;24.88;80223.72;5131509;27;20204;-55
2023/07/30 06:10:42;;;;;;;4.60;4.00;;;;;;;-144.30;25.37;80465.91;5131927;27;20220;-55
2023/07/30 06:13:38;;;;;;;4.05;3.67;;;;;;;-144.30;25.19;80489.72;5131676;27;20190;-54
2023/07/30 06:16:20;;;;;;;5.68;3.70;;;;;;;-144.30;25.46;80523.47;5131902;27;20281;-50
2023/07/30 06:19:16;;;;;;;5.60;4.35;;;;;;;-144.30;25.43;80428.19;5129625;27;20190;-51
2023/07/30 06:22:02;;;;;;;4.65;3.80;;;;;;;-144.30;25.10;80303.13;5127125;27;20197;-55
2023/07/30 06:24:37;;;;;;;4.65;3.97;;;;;;;-144.30;25.47;80499.63;5130999;27;20201;-53
2023/07/30 06:27:30;;;;;;;4.63;4.03;;;;;;;-144.30;25.58;80636.63;5128900;27;20584;-51
2023/07/30 06:30:17;;;;;;;5.00;4.60;;;;;;;-144.30;25.63;80571.09;5130505;27;20305;-54
2023/07/30 06:33:17;;;;;;;4.60;4.22;;;;;;;-144.30;25.65;80587.00;5127530;27;20236;-54
2023/07/30 06:36:04;;;;;;;3.95;3.65;;;;;;;-144.30;25.46;80450.00;5130050;27;20195;-51
2023/07/30 06:39:03;;;;;;;8.32;4.00;;;;;;;-144.30;25.40;80467.88;5128333;27;20204;-55
2023/07/30 06:41:51;;;;;;;4.63;3.83;;;;;;;-144.30;25.58;80608.81;5130579;27;20201;-54
2023/07/30 06:47:29;;;;;;;4.95;4.50;;;;;;;-144.30;25.75;80664.41;5129301;27;20213;-50
2023/07/30 06:50:17;;;;;;;10.90;4.90;;;;;;;-144.30;26.29;80908.59;5130081;27;20731;-54
2023/07/30 06:53:13;;;;;;;7.13;4.57;;;;;;;-144.30;26.61;81057.50;5129275;27;20189;-53
2023/07/30 06:58:57;;;;;;;5.07;3.90;;;;;;;-144.30;27.25;81273.91;5129242;27;20229;-51
2023/07/30 07:01:53;;;;;;;5.40;3.95;;;;;;;-144.30;27.09;81307.69;5129507;27;20724;-51
2023/07/30 07:04:45;;;;;;;4.40;3.60;;;;;;;-144.30;27.20;81273.91;5128653;27;20197;-54
2023/07/30 07:07:40;;;;;;;5.78;4.13;;;;;;;-144.30;27.16;81307.69;5129488;27;20563;-50
2023/07/30 07:10:23;;;;;;;7.57;4.10;;;;;;;-144.30;27.35;81216.34;5128294;27;20221;-51
2023/07/30 07:13:09;;;;;;;4.18;3.78;;;;;;;-144.30;27.20;81182.59;5130080;27;20204;-53
2023/07/30 07:15:57;;;;;;;8.27;4.47;;;;;;;-144.30;27.21;81289.81;5130838;27;20721;-55
2023/07/30 07:18:26;;;;;;;12.40;4.60;;;;;;;-144.30;27.80;81315.63;5128849;27;20258;-49
2023/07/30 07:21:06;;;;;;;7.80;4.05;;;;;;;-144.30;27.54;81184.56;5129921;27;20229;-50
2023/07/30 07:23:43;;;;;;;4.20;3.75;;;;;;;-144.30;27.22;81146.84;5130055;27;20208;-50
2023/07/30 07:29:30;;;;;;;5.85;3.83;;;;;;;-144.30;27.30;81325.56;5130462;27;20673;-51
2023/07/30 07:32:21;;;;;;;7.25;4.10;;;;;;;-144.30;27.12;81164.72;5130210;27;20189;-50
2023/07/30 07:34:57;;;;;;;5.43;3.88;;;;;;;-144.30;27.08;81007.88;5129890;28;20220;-50
2023/07/30 07:37:51;;;;;;;5.05;3.67;;;;;;;-144.30;26.56;80922.50;5130311;28;20242;-55
2023/07/30 07:43:48;;;;;;;4.25;3.95;;;;;;;-144.30;26.38;80825.22;5124378;28;20209;-53
2023/07/30 07:46:44;;;;;;;3.72;3.42;;;;;;;-144.30;26.10;80890.72;5129960;28;20649;-52
2023/07/30 07:49:39;;;;;;;6.47;3.83;;;;;;;-144.30;26.13;80723.97;5130047;28;20280;-55
2023/07/30 07:52:30;;;;;;;8.45;3.85;;;;;;;-144.30;28.27;80666.41;5129969;28;20887;-52
2023/07/30 07:58:06;;;;;;;3.50;3.30;;;;;;;-144.30;26.05;80789.47;5130017;28;20205;-54
2023/07/30 08:01:01;;;;;;;4.47;4.18;;;;;;;-144.30;27.64;80575.06;5130755;28;20279;-54
2023/07/30 08:04:06;;;;;;;3.97;3.55;;;;;;;-144.30;30.21;80684.25;5129172;28;20681;-58
2023/07/30 08:07:03;;;;;;;5.22;3.95;;;;;;;-144.30;27.13;80561.19;5129887;28;20242;-50
2023/07/30 08:09:45;;;;;;;4.50;3.92;;;;;;;-144.30;27.69;80573.09;5130084;28;20247;-51
2023/07/30 08:12:45;;;;;;;3.92;3.63;;;;;;;-144.30;26.36;80702.13;5129980;28;20767;-56
2023/07/30 08:15:33;;;;;;;4.05;3.75;;;;;;;-144.30;26.33;80644.56;5128478;28;20194;-49
2023/07/30 08:18:11;;;;;;;8.10;3.53;;;;;;;-144.30;26.55;80731.91;5129421;28;20189;-49
2023/07/30 08:21:05;;;;;;;4.03;3.83;;;;;;;-144.30;26.36;80789.47;5128314;28;20236;-50
2023/07/30 08:26:56;;;;;;;12.45;3.97;;;;;;;-144.30;26.14;80662.44;5129564;28;20283;-48
2023/07/30 08:29:44;;;;;;;5.13;3.95;;;;;;;-144.30;25.94;80642.56;5129875;28;20610;-54
2023/07/30 08:32:18;;;;;;;4.07;3.67;;;;;;;-144.30;25.58;80533.38;5130196;28;20190;-54
2023/07/30 08:35:15;;;;;;;8.50;3.78;;;;;;;-144.30;26.25;80573.09;5127506;28;20200;-55
2023/07/30 08:38:09;;;;;;;4.03;3.63;;;;;;;-144.30;25.95;80596.91;5131848;27;20197;-56
2023/07/30 08:40:57;;;;;;;3.90;3.60;;;;;;;-144.30;26.43;80743.81;5131153;27;20190;-56
2023/07/30 08:43:48;;;;;;;5.32;3.20;;;;;;;-144.30;25.80;80821.25;5132655;27;20193;-55
2023/07/30 08:46:25;;;;;;;3.85;3.55;;;;;;;-144.30;26.02;80930.44;5132890;27;20236;-54
2023/07/30 08:49:03;;;;;;;6.65;3.58;;;;;;;-144.30;26.32;81148.84;5112016;28;20201;-54
2023/07/30 08:51:46;;;;;;;3.40;3.17;;;;;;;-144.30;26.91;81391.06;5110980;28;20261;-55
2023/07/30 08:54:29;;;;;;;3.63;3.30;;;;;;;-144.30;26.89;81422.84;5112265;28;20285;-54
2023/07/30 08:57:01;;;;;;;4.78;3.83;;;;;;;-144.30;26.87;81395.03;5112081;28;20195;-55
2023/07/30 08:59:40;;;;;;;3.97;3.42;;;;;;;-144.30;26.63;81321.56;5111977;28;20245;-55
2023/07/30 09:02:21;;;;;;;3.63;3.42;;;;;;;-144.30;26.63;81363.28;5111920;28;20267;-56
2023/07/30 09:04:56;;;;;;;3.35;3.10;;;;;;;-144.30;26.69;81271.94;5109374;28;20229;-55
2023/07/30 09:07:25;;;;;;;5.85;3.72;;;;;;;-144.30;26.60;81248.13;5110861;28;20745;-49
2023/07/30 09:10:31;;;;;;;3.40;3.20;;;;;;;-144.30;26.55;81279.88;5111581;28;20796;-55
2023/07/30 09:13:32;;;;;;;;;;;;;;;;;;;;;
2023/07/30 09:16:30;;;;;;;3.83;3.53;;;;;;;-144.30;26.41;81196.50;5108903;28;20205;-55
2023/07/30 09:19:18;;;;;;;7.72;4.20;;;;;;;-144.30;26.50;81105.16;5110848;28;20202;-54
2023/07/30 09:22:08;;;;;;;6.80;3.80;;;;;;;-144.30;26.21;81063.47;5077418;28;20658;-48
2023/07/30 09:25:04;;;;;;;4.00;3.70;;;;;;;-144.30;25.76;80993.97;5090515;28;20281;-50
2023/07/30 09:27:46;;;;;;;4.95;3.72;;;;;;;-144.30;25.71;80946.31;5090008;28;20695;-50
2023/07/30 09:30:38;;;;;;;3.95;3.70;;;;;;;-144.30;25.70;80930.44;5090395;28;20222;-49
2023/07/30 09:33:26;;;;;;;17.95;4.45;;;;;;;-144.30;26.03;81005.88;5090792;28;20751;-54
2023/07/30 09:36:13;;;;;;;4.15;3.72;;;;;;;-144.30;26.01;81057.50;5090242;28;20252;-54
2023/07/30 09:39:02;;;;;;;4.18;3.85;;;;;;;-144.30;26.14;81099.19;5089828;28;20207;-55
2023/07/30 09:42:04;;;;;;;4.20;3.80;;;;;;;-144.30;26.02;81117.06;5090865;28;20230;-49
2023/07/30 09:45:06;;;;;;;9.90;4.07;;;;;;;-144.30;26.60;81152.81;5091323;28;20198;-50
2023/07/30 09:48:04;;;;;;;4.15;3.45;;;;;;;-144.30;26.47;81210.38;5090729;28;20199;-49
2023/07/30 09:51:02;;;;;;;;;;;;;;;;;;;;;
2023/07/30 09:53:49;;;;;;;5.28;3.45;;;;;;;-144.30;26.47;81244.13;5090766;28;20203;-48
2023/07/30 09:56:43;;;;;;;3.38;3.28;;;;;;;-144.30;26.53;81196.50;5088710;28;20274;-50
2023/07/30 09:59:40;;;;;;;3.55;3.35;;;;;;;-144.30;26.29;81182.59;5090366;28;20195;-49
2023/07/30 10:02:39;;;;;;;4.10;3.80;;;;;;;-144.30;26.82;81184.56;5089331;28;20195;-50
2023/07/30 10:05:36;;;;;;;3.53;3.22;;;;;;;-144.30;26.49;81144.88;5089732;28;20205;-49
2023/07/30 10:08:17;;;;;;;7.32;3.85;;;;;;;-144.30;26.65;81152.81;5089319;28;20217;-49
2023/07/30 10:11:03;;;;;;;4.82;3.50;;;;;;;-144.30;26.60;81164.72;5089482;28;20590;-49
2023/07/30 10:13:42;;;;;;;6.15;4.05;;;;;;;-144.30;27.21;81160.75;5090256;28;20589;-51
2023/07/30 10:16:18;;;;;;;4.05;3.78;;;;;;;-144.30;26.87;81130.97;5089831;28;20226;-55
2023/07/30 10:19:07;;;;;;;5.22;3.45;;;;;;;-144.30;27.41;81275.91;5088377;28;20654;-54
2023/07/30 10:21:55;;;;;;;6.72;3.92;;;;;;;-144.30;26.77;81327.53;5108774;28;20634;-50
2023/07/30 10:24:45;;;;;;;3.88;3.53;;;;;;;-144.30;27.32;81476.47;5107877;28;20209;-50
2023/07/30 10:27:46;;;;;;;;;;;;;;;;;;;;;
2023/07/30 10:30:35;;;;;;;3.83;3.47;;;;;;;-144.30;27.78;81595.59;5108632;28;20214;-51
2023/07/30 10:33:12;;;;;;;4.22;3.92;;;;;;;-144.30;28.03;81655.19;5108145;28;20194;-48
2023/07/30 10:35:45;;;;;;;6.07;5.00;;;;;;;-144.30;28.03;81641.28;5106846;28;20216;-55
2023/07/30 10:38:24;;;;;;;6.95;4.40;;;;;;;-144.30;28.32;81732.63;5107065;28;20278;-50
2023/07/30 10:41:05;;;;;;;5.20;4.32;;;;;;;-144.30;28.52;81808.09;5109553;28;20281;-55
2023/07/30 10:43:44;;;;;;;4.57;4.18;;;;;;;-144.30;27.92;81760.41;5108747;28;20190;-51
2023/07/30 10:46:26;;;;;;;4.90;4.00;;;;;;;-144.30;27.71;81800.13;5109221;28;20195;-51
2023/07/30 10:49:06;;;;;;;4.28;4.00;;;;;;;-144.30;28.05;81877.59;5108383;28;20240;-55
2023/07/30 10:51:36;;;;;;;6.15;4.75;;;;;;;-144.30;27.71;81833.91;5103960;27;20225;-53
2023/07/30 10:54:10;;;;;;;4.40;3.92;;;;;;;-144.30;27.98;81911.34;5109648;27;20206;-50
2023/07/30 10:56:50;;;;;;;6.20;3.80;;;;;;;-144.30;27.83;81895.47;5097691;28;20290;-50
2023/07/30 10:59:30;;;;;;;4.07;3.78;;;;;;;-144.30;27.72;81871.63;5108043;28;20281;-52
2023/07/30 11:02:12;;;;;;;3.30;3.10;;;;;;;-144.30;28.10;81907.38;5109203;28;20715;-54
2023/07/30 11:04:56;;;;;;;3.22;3.08;;;;;;;-144.30;27.88;81931.22;5109124;28;20202;-52
2023/07/30 11:07:40;;;;;;;4.45;3.28;;;;;;;-144.30;27.89;81982.84;5109142;28;20281;-55
2023/07/30 11:10:13;;;;;;;3.53;3.33;;;;;;;-144.30;27.68;81953.06;5109417;28;20194;-54
2023/07/30 11:12:49;;;;;;;3.30;3.20;;;;;;;-144.30;28.29;81982.84;5109839;28;20241;-55
2023/07/30 11:15:24;;;;;;;4.65;3.10;;;;;;;-144.30;28.05;81984.81;5108676;28;20635;-55
2023/07/30 11:18:02;;;;;;;3.40;3.05;;;;;;;-144.30;27.62;81879.56;5109658;28;20198;-56
2023/07/30 11:20:34;;;;;;;4.68;3.10;;;;;;;-144.30;27.30;81897.44;5108511;28;20218;-50
2023/07/30 11:23:28;;;;;;;3.53;3.30;;;;;;;-144.30;27.23;81903.41;5109442;28;20233;-54
2023/07/30 11:26:02;;;;;;;3.88;3.40;;;;;;;-144.30;27.06;81869.66;5109834;28;20198;-55
2023/07/30 11:28:41;;;;;;;3.33;3.13;;;;;;;-144.30;26.65;81849.78;5109267;28;20199;-53
2023/07/30 11:31:11;;;;;;;3.72;3.20;;;;;;;-144.30;27.02;81855.75;5109329;28;20222;-55
2023/07/30 11:33:50;;;;;;;3.60;3.30;;;;;;;-144.30;27.26;81877.59;5109380;28;20559;-50
2023/07/30 11:36:23;;;;;;;4.13;3.40;;;;;;;-144.30;27.23;81895.47;5108433;28;20202;-56
2023/07/30 11:38:59;;;;;;;3.10;3.00;;;;;;;-144.30;27.08;81889.50;5108978;28;20201;-54
2023/07/30 11:41:36;;;;;;;3.67;3.30;;;;;;;-144.30;26.96;81831.91;5108390;28;20272;-50
2023/07/30 11:44:08;;;;;;;3.55;3.25;;;;;;;-144.30;26.96;81875.59;5108725;28;20202;-49
2023/07/30 11:46:39;;;;;;;3.33;3.17;;;;;;;-144.30;26.92;81806.09;5109143;28;20243;-51
2023/07/30 11:49:16;;;;;;;3.03;2.92;;;;;;;-144.30;26.50;81806.09;5108774;28;20202;-50
2023/07/30 11:51:51;;;;;;;3.72;2.88;;;;;;;-144.30;26.50;81800.13;5108852;28;20300;-49
2023/07/30 11:54:41;;;;;;;3.08;2.92;;;;;;;-144.30;26.38;81758.44;5109108;28;20221;-49
2023/07/30 11:57:15;;;;;;;3.50;3.20;;;;;;;-144.30;26.20;81829.94;5096221;28;20593;-49
2023/07/30 11:59:46;;;;;;;3.67;3.35;;;;;;;-144.30;26.36;81831.91;5108899;28;20201;-50
2023/07/30 12:02:25;;;;;;;3.40;3.20;;;;;;;-144.30;26.21;81827.94;5108823;28;20706;-50
2023/07/30 12:05:05;;;;;;;3.53;3.33;;;;;;;-144.30;26.12;81889.50;5108887;28;20202;-54
2023/07/30 12:07:35;;;;;;;3.47;3.03;;;;;;;-144.30;26.19;81897.44;5108960;28;20280;-54
2023/07/30 12:10:19;;;;;;;2.90;2.80;;;;;;;-144.30;26.14;81851.78;5108794;28;20633;-54
2023/07/30 12:13:08;;;;;;;3.22;2.90;;;;;;;-144.30;26.04;81841.84;5113322;28;20234;-50
2023/07/30 12:15:52;;;;;;;3.13;2.92;;;;;;;-144.30;25.83;81816.03;5112853;28;20191;-50
2023/07/30 12:18:31;;;;;;;4.05;3.55;;;;;;;-144.30;26.22;81843.81;5112705;28;20591;-49
2023/07/30 12:21:26;;;;;;;3.55;3.25;;;;;;;-144.30;26.60;81808.09;5129216;27;20264;-49
2023/07/30 12:24:11;;;;;;;3.88;3.55;;;;;;;-144.30;26.48;81829.94;5133399;27;20295;-49
2023/07/30 12:26:50;;;;;;;3.20;3.00;;;;;;;-144.30;25.80;81768.38;5131624;27;20693;-49
2023/07/30 12:29:26;;;;;;;3.58;3.30;;;;;;;-144.30;25.63;81704.81;5132027;27;20199;-54
2023/07/30 12:32:10;;;;;;;3.92;3.63;;;;;;;-144.30;25.12;81748.50;5133159;27;20609;-53
2023/07/30 12:34:55;;;;;;;3.88;3.35;;;;;;;-144.30;25.42;81760.41;5132652;27;20254;-49
2023/07/30 12:37:42;;;;;;;3.15;2.97;;;;;;;-144.30;25.79;81744.53;5132475;27;20229;-50
2023/07/30 12:43:39;;;;;;;3.33;3.08;;;;;;;-144.30;25.46;82405.88;5132624;27;20300;-50
2023/07/30 12:46:33;;;;;;;7.07;3.60;;;;;;;-144.30;25.60;81835.88;5129305;27;20210;-54
2023/07/30 12:49:22;;;;;;;4.40;4.07;;;;;;;-144.30;25.78;81800.13;5132833;27;20190;-54
2023/07/30 12:51:54;;;;;;;3.90;3.60;;;;;;;-144.30;25.63;81825.94;5131097;27;20222;-54
2023/07/30 12:54:32;;;;;;;4.60;3.58;;;;;;;-144.30;25.45;81839.84;5132103;27;20197;-53
2023/07/30 12:57:05;;;;;;;4.57;4.25;;;;;;;-144.30;25.45;81833.91;5124075;27;20630;-54
2023/07/30 12:59:38;;;;;;;3.58;3.25;;;;;;;-144.30;25.65;81843.81;5112020;28;20206;-54
2023/07/30 13:02:08;;;;;;;3.50;3.30;;;;;;;-144.30;25.59;81857.72;5112206;28;20255;-54
2023/07/30 13:04:46;;;;;;;3.53;3.33;;;;;;;-144.30;25.79;81927.22;5111712;28;20272;-54
2023/07/30 13:07:22;;;;;;;4.30;3.90;;;;;;;-144.30;25.84;81941.13;5111877;28;20198;-54
2023/07/30 13:10:06;;;;;;;4.32;3.22;;;;;;;-144.30;25.82;81893.47;5109288;28;20255;-50
2023/07/30 13:12:40;;;;;;;3.15;2.95;;;;;;;-144.30;25.75;81875.59;5112358;28;20582;-50
2023/07/30 13:15:14;;;;;;;3.08;2.88;;;;;;;-144.30;25.44;81903.41;5111293;28;20278;-49
2023/07/30 13:17:46;;;;;;;4.60;4.20;;;;;;;-144.30;25.12;81903.41;5126538;27;20194;-54
2023/07/30 13:20:16;;;;;;;4.75;4.45;;;;;;;-144.30;25.37;81875.59;5128892;27;20765;-53